Time;durP1;ratioP1;P1;durP2;ratioP2;P2;SDS_P1;SDS_P2;PMS_P1;PMS_P2;Temp;Humidity;BMP_temperature;BMP_pressure;BME280_temperature;BME280_humidity;BME280_pressure;Samples;Min_cycle;Max_cycle;Signal;HPM_P1;HPM_P2
2022/08/13 00:00:37;;;;;;;6.63;2.97;;;;;;;13.52;77.75;98310.97;5060286;28;20050;-69
2022/08/13 00:03:10;;;;;;;6.13;3.20;;;;;;;13.60;77.70;98311.56;5047818;28;20029;-69
2022/08/13 00:05:36;;;;;;;5.97;3.30;;;;;;;13.54;77.36;98309.97;5046378;28;20025;-69
2022/08/13 00:08:04;;;;;;;7.78;3.20;;;;;;;13.62;77.59;98309.72;5053488;28;20025;-69
2022/08/13 00:10:30;;;;;;;6.18;3.17;;;;;;;13.63;77.72;98308.78;5061491;28;20025;-69
2022/08/13 00:13:03;;;;;;;5.15;2.88;;;;;;;13.71;77.41;98304.09;5055422;28;20100;-69
2022/08/13 00:15:36;;;;;;;8.82;3.25;;;;;;;13.60;77.47;98309.75;5063919;28;20016;-69
2022/08/13 00:18:05;;;;;;;6.97;2.97;;;;;;;13.60;77.56;98314.22;5052494;28;20033;-69
2022/08/13 00:20:53;;;;;;;9.30;3.42;;;;;;;13.46;77.42;98305.91;5044862;28;20224;-69
2022/08/13 00:23:20;;;;;;;4.75;3.00;;;;;;;13.49;77.42;98311.94;5051956;28;20259;-69
2022/08/13 00:25:47;;;;;;;6.25;3.10;;;;;;;13.38;77.31;98303.53;5044864;28;20368;-69
2022/08/13 00:28:16;;;;;;;8.43;3.30;;;;;;;13.36;78.28;98301.84;5058172;28;20025;-69
2022/08/13 00:30:44;;;;;;;9.10;3.10;;;;;;;13.35;78.06;98300.97;5057432;28;20021;-69
2022/08/13 00:33:12;;;;;;;7.15;2.97;;;;;;;13.24;78.17;98294.34;5052331;28;20060;-69
2022/08/13 00:35:41;;;;;;;7.13;3.25;;;;;;;13.25;77.92;98298.75;5055831;28;20028;-69
2022/08/13 00:38:28;;;;;;;7.65;3.30;;;;;;;13.18;78.27;98306.00;5052006;28;20020;-69
2022/08/13 00:40:59;;;;;;;8.10;3.25;;;;;;;13.16;78.85;98304.34;5051267;28;20032;-69
2022/08/13 00:43:26;;;;;;;4.90;3.23;;;;;;;13.07;78.79;98308.19;5054126;28;20048;-69
2022/08/13 00:45:54;;;;;;;7.55;3.15;;;;;;;13.10;79.27;98301.91;5052783;28;20198;-69
2022/08/13 00:51:06;;;;;;;7.18;3.42;;;;;;;13.01;79.38;98288.09;5053556;28;20351;-69
2022/08/13 00:53:33;;;;;;;6.30;3.08;;;;;;;12.96;79.78;98302.34;5058946;28;20020;-69
2022/08/13 00:55:58;;;;;;;6.78;3.40;;;;;;;13.02;80.18;98304.81;5051366;28;20048;-69
2022/08/13 00:58:27;;;;;;;7.28;3.30;;;;;;;12.98;79.90;98304.00;5054715;28;20029;-69
2022/08/13 01:00:56;;;;;;;5.63;3.22;;;;;;;13.02;79.84;98303.03;5053382;28;20058;-69
2022/08/13 01:03:23;;;;;;;4.57;3.10;;;;;;;13.00;80.07;98302.22;5053202;28;20025;-69
2022/08/13 01:05:49;;;;;;;6.20;3.70;;;;;;;12.91;79.88;98299.84;5057036;28;20324;-69
2022/08/13 01:08:18;;;;;;;5.05;3.10;;;;;;;12.84;80.05;98302.75;5056446;28;20029;-69
2022/08/13 01:10:50;;;;;;;10.00;3.45;;;;;;;12.69;80.35;98296.19;5054279;28;20088;-69
2022/08/13 01:13:19;;;;;;;5.23;3.33;;;;;;;12.54;80.40;98296.72;5056705;28;20029;-69
2022/08/13 01:15:46;;;;;;;4.28;2.92;;;;;;;12.63;80.76;98285.84;5049220;28;20252;-69
2022/08/13 01:18:13;;;;;;;4.93;3.15;;;;;;;12.71;80.20;98291.75;5044211;28;20044;-69
2022/08/13 01:20:48;;;;;;;11.27;3.15;;;;;;;12.70;80.50;98291.78;5043941;28;20025;-69
2022/08/13 01:23:15;;;;;;;6.35;3.20;;;;;;;12.54;80.27;98295.84;5054609;28;20084;-69
2022/08/13 01:25:42;;;;;;;4.82;3.30;;;;;;;12.56;80.86;98300.16;5053455;28;20328;-69
2022/08/13 01:28:08;;;;;;;6.95;3.22;;;;;;;12.45;80.17;98302.31;5050212;28;20245;-69
2022/08/13 01:30:34;;;;;;;6.53;3.10;;;;;;;12.41;80.84;98300.66;5049076;28;20021;-69
2022/08/13 01:33:02;;;;;;;4.32;3.00;;;;;;;12.42;81.42;98301.53;5049350;28;20090;-69
2022/08/13 01:35:28;;;;;;;5.28;3.22;;;;;;;12.38;81.56;98299.91;5050232;28;20056;-69
2022/08/13 01:37:54;;;;;;;7.05;3.45;;;;;;;12.39;81.63;98302.50;5051144;28;20029;-69
2022/08/13 01:40:21;;;;;;;5.45;3.25;;;;;;;12.26;81.65;98301.16;5053364;28;20033;-69
2022/08/13 01:42:48;;;;;;;9.43;4.10;;;;;;;12.32;82.46;98306.25;5049386;28;20308;-69
2022/08/13 01:45:14;;;;;;;5.07;3.25;;;;;;;12.24;82.26;98302.97;5053437;28;20021;-69
2022/08/13 01:50:29;;;;;;;4.43;3.00;;;;;;;12.12;82.11;98298.06;5052497;28;20155;-69
2022/08/13 01:53:07;;;;;;;6.35;3.55;;;;;;;12.03;82.08;98300.13;5056588;28;20025;-69
2022/08/13 01:55:39;;;;;;;6.32;3.22;;;;;;;12.13;82.57;98305.09;5052692;28;20017;-69
2022/08/13 01:58:06;;;;;;;5.88;3.53;;;;;;;12.09;82.00;98299.94;5050512;28;20028;-69
2022/08/13 02:00:32;;;;;;;4.68;3.40;;;;;;;11.99;82.21;98301.97;5050666;28;20267;-69
2022/08/13 02:03:01;;;;;;;6.68;3.55;;;;;;;11.84;83.22;98297.19;5048749;28;20075;-69
2022/08/13 02:05:27;;;;;;;8.18;4.18;;;;;;;11.78;83.62;98302.63;5048816;28;20021;-69
2022/08/13 02:07:53;;;;;;;10.60;3.70;;;;;;;11.74;83.80;98298.34;5055960;28;20021;-69
2022/08/13 02:10:21;;;;;;;8.80;3.42;;;;;;;11.68;83.54;98290.59;5052329;28;20045;-69
2022/08/13 02:12:47;;;;;;;7.57;3.63;;;;;;;11.68;84.52;98300.31;5056248;28;20079;-69
2022/08/13 02:15:15;;;;;;;5.75;3.25;;;;;;;11.66;84.66;98295.09;5056592;28;20332;-69
2022/08/13 02:17:41;;;;;;;6.75;3.67;;;;;;;11.57;84.59;98292.66;5055463;28;20097;-69
2022/08/13 02:20:09;;;;;;;6.07;3.47;;;;;;;11.68;84.47;98295.03;5058481;28;20059;-69
2022/08/13 02:22:36;;;;;;;6.57;3.20;;;;;;;11.65;84.56;98296.00;5056116;28;20029;-69
2022/08/13 02:25:03;;;;;;;7.45;3.60;;;;;;;11.57;84.73;98302.34;5050624;28;20075;-69
2022/08/13 02:27:29;;;;;;;8.57;3.40;;;;;;;11.50;84.55;98293.75;5057612;28;20021;-69
2022/08/13 02:29:56;;;;;;;6.15;3.50;;;;;;;11.53;85.00;98306.84;5055612;28;20037;-69
2022/08/13 02:32:25;;;;;;;6.93;3.70;;;;;;;11.62;84.72;98306.63;5055796;28;20031;-69
2022/08/13 02:34:51;;;;;;;9.38;3.70;;;;;;;11.57;84.29;98303.22;5057683;28;20216;-69
2022/08/13 02:37:22;;;;;;;4.45;3.03;;;;;;;11.34;84.89;98300.38;5055020;28;20307;-69
2022/08/13 02:39:49;;;;;;;5.28;3.45;;;;;;;11.46;85.14;98305.31;5049642;28;20025;-69
2022/08/13 02:42:16;;;;;;;7.25;3.58;;;;;;;11.55;84.95;98307.66;5055120;28;20028;-69
2022/08/13 02:44:43;;;;;;;6.15;3.47;;;;;;;11.39;84.14;98303.72;5050302;28;20086;-69
2022/08/13 02:47:11;;;;;;;9.80;3.60;;;;;;;11.35;84.59;98302.09;5054462;28;20025;-69
2022/08/13 02:49:36;;;;;;;5.95;3.55;;;;;;;11.28;84.75;98305.81;5056365;28;20024;-69
2022/08/13 02:52:04;;;;;;;5.50;3.35;;;;;;;11.24;86.10;98304.16;5049006;28;20059;-69
2022/08/13 02:54:30;;;;;;;6.63;3.85;;;;;;;11.28;85.82;98303.16;5049138;28;20048;-69
2022/08/13 02:56:56;;;;;;;6.78;3.67;;;;;;;11.39;85.76;98313.41;5055251;28;20041;-69
2022/08/13 02:59:23;;;;;;;5.80;3.35;;;;;;;11.22;85.68;98305.97;5063903;28;20028;-69
2022/08/13 03:01:51;;;;;;;7.60;3.20;;;;;;;11.29;85.83;98312.78;5063891;28;20252;-69
2022/08/13 03:04:16;;;;;;;5.15;3.20;;;;;;;11.15;86.13;98314.94;5059617;28;20028;-69
2022/08/13 03:06:42;;;;;;;6.82;3.38;;;;;;;11.10;86.10;98306.28;5058910;28;20025;-69
2022/08/13 03:09:08;;;;;;;6.43;4.05;;;;;;;11.24;86.24;98319.09;5054401;28;20221;-69
2022/08/13 03:11:33;;;;;;;6.88;4.00;;;;;;;11.21;86.45;98320.06;5048449;28;20321;-69
2022/08/13 03:14:04;;;;;;;6.63;3.45;;;;;;;11.04;85.52;98319.59;5046277;28;20029;-69
2022/08/13 03:16:31;;;;;;;9.07;3.40;;;;;;;11.10;86.09;98322.09;5065060;28;20029;-69
2022/08/13 03:18:58;;;;;;;6.55;3.65;;;;;;;11.13;86.52;98319.38;5059265;28;20095;-69
2022/08/13 03:21:32;;;;;;;5.78;3.55;;;;;;;11.02;86.50;98321.44;5063137;28;20352;-69
2022/08/13 03:23:58;;;;;;;5.72;3.85;;;;;;;11.03;86.64;98325.78;5057813;28;20028;-69
2022/08/13 03:26:24;;;;;;;14.32;3.95;;;;;;;11.09;86.67;98325.63;5060929;28;20066;-69
2022/08/13 03:28:54;;;;;;;7.50;4.10;;;;;;;11.06;86.59;98325.72;5059759;28;20037;-69
2022/08/13 03:31:21;;;;;;;11.27;3.70;;;;;;;11.13;87.06;98327.28;5061666;28;20029;-69
2022/08/13 03:33:47;;;;;;;6.32;3.80;;;;;;;11.19;87.05;98331.50;5061183;28;20051;-69
2022/08/13 03:36:13;;;;;;;7.95;4.35;;;;;;;11.13;86.91;98327.28;5059738;28;20021;-69
2022/08/13 03:38:39;;;;;;;11.88;3.80;;;;;;;11.07;86.78;98324.81;5062490;28;20036;-69
2022/08/13 03:41:14;;;;;;;6.25;3.88;;;;;;;11.01;86.38;98319.69;5057272;28;20025;-69
2022/08/13 03:43:45;;;;;;;7.30;3.53;;;;;;;10.97;87.24;98330.38;5053807;28;20029;-69
2022/08/13 03:46:17;;;;;;;5.88;3.38;;;;;;;10.81;87.12;98324.59;5051328;28;20198;-69
2022/08/13 03:48:43;;;;;;;11.75;4.82;;;;;;;10.77;87.35;98333.50;5054752;28;20217;-69
2022/08/13 03:51:09;;;;;;;7.03;3.85;;;;;;;10.61;88.40;98343.53;5050977;28;20036;-69
2022/08/13 03:53:36;;;;;;;8.45;4.25;;;;;;;10.51;88.64;98339.38;5059350;28;20415;-69
2022/08/13 03:56:03;;;;;;;5.25;3.55;;;;;;;10.52;88.53;98342.88;5053330;28;20020;-69
2022/08/13 03:58:29;;;;;;;8.88;3.35;;;;;;;10.45;87.88;98336.03;5056068;28;20040;-69
2022/08/13 04:00:56;;;;;;;10.05;3.50;;;;;;;10.41;87.94;98334.41;5054142;28;20031;-69
2022/08/13 04:03:24;;;;;;;6.35;3.60;;;;;;;10.39;88.63;98336.19;5053396;28;20044;-69
2022/08/13 04:05:54;;;;;;;5.07;3.10;;;;;;;10.39;88.98;98334.44;5050266;28;20036;-69
2022/08/13 04:08:20;;;;;;;6.43;3.65;;;;;;;10.40;88.29;98341.41;5058539;28;20031;-69
2022/08/13 04:10:46;;;;;;;5.35;3.42;;;;;;;10.37;89.08;98343.22;5049805;28;20197;-69
2022/08/13 04:13:15;;;;;;;4.75;3.33;;;;;;;10.42;88.69;98349.25;5053525;28;20025;-69
2022/08/13 04:15:43;;;;;;;8.70;3.95;;;;;;;10.37;88.82;98348.50;5054258;28;20033;-69
2022/08/13 04:18:13;;;;;;;5.20;3.47;;;;;;;10.52;88.79;98349.03;5054504;28;20025;-69
2022/08/13 04:20:43;;;;;;;5.45;2.92;;;;;;;10.49;88.83;98348.22;5054955;28;20025;-69
2022/08/13 04:23:13;;;;;;;5.20;3.38;;;;;;;10.53;88.33;98344.59;5055548;28;20028;-69
2022/08/13 04:25:39;;;;;;;8.18;3.50;;;;;;;10.29;87.78;98345.19;5049401;28;20312;-69
2022/08/13 04:28:07;;;;;;;8.75;3.38;;;;;;;10.41;88.37;98350.19;5052346;28;20067;-69
2022/08/13 04:30:41;;;;;;;5.72;3.63;;;;;;;10.31;88.97;98353.91;5053064;28;20063;-69
2022/08/13 04:33:11;;;;;;;6.45;3.50;;;;;;;10.17;88.87;98356.84;5049212;28;20029;-69
2022/08/13 04:35:36;;;;;;;6.70;3.60;;;;;;;10.09;89.31;98357.91;5049521;28;20029;-69
2022/08/13 04:38:05;;;;;;;4.45;3.05;;;;;;;10.08;90.34;98361.44;5051252;28;20126;-69
2022/08/13 04:40:33;;;;;;;4.43;2.92;;;;;;;10.20;90.72;98361.19;5051682;28;20089;-69
2022/08/13 04:42:58;;;;;;;5.05;3.20;;;;;;;10.33;89.82;98367.88;5046972;28;20229;-69
2022/08/13 04:45:25;;;;;;;5.75;3.17;;;;;;;10.42;89.59;98362.41;5050655;28;20026;-69
2022/08/13 04:47:58;;;;;;;5.57;3.35;;;;;;;10.36;89.71;98367.81;5057618;28;20084;-69
2022/08/13 04:50:25;;;;;;;7.65;2.80;;;;;;;10.45;89.23;98367.63;5048825;28;20017;-69
2022/08/13 04:52:51;;;;;;;16.05;3.30;;;;;;;10.52;88.87;98369.19;5056301;28;20198;-69
2022/08/13 04:55:17;;;;;;;4.28;2.85;;;;;;;10.40;89.29;98364.22;5054471;28;20048;-69
2022/08/13 04:57:43;;;;;;;4.07;2.65;;;;;;;10.52;89.49;98369.19;5050605;28;20055;-69
2022/08/13 05:00:09;;;;;;;5.13;3.10;;;;;;;10.61;89.19;98369.88;5052085;28;20333;-69
2022/08/13 05:02:39;;;;;;;4.85;3.17;;;;;;;10.72;88.88;98369.59;5055417;28;20317;-69
2022/08/13 05:05:06;;;;;;;5.38;2.90;;;;;;;10.70;88.48;98374.03;5050602;28;20309;-69
2022/08/13 05:07:32;;;;;;;6.72;2.97;;;;;;;10.69;88.72;98375.78;5055455;28;20304;-69
2022/08/13 05:09:57;;;;;;;7.40;3.03;;;;;;;10.79;88.45;98376.47;5052987;28;20027;-69
2022/08/13 05:12:23;;;;;;;6.57;3.00;;;;;;;10.84;88.35;98382.44;5054735;28;20032;-69
2022/08/13 05:14:48;;;;;;;6.65;2.97;;;;;;;10.90;88.64;98387.56;5054669;28;20029;-69
2022/08/13 05:17:14;;;;;;;7.20;2.88;;;;;;;11.50;87.92;98388.63;5055377;28;20021;-69
2022/08/13 05:19:39;;;;;;;6.30;3.00;;;;;;;13.29;82.63;98392.88;5051578;28;20028;-69
2022/08/13 05:22:06;;;;;;;3.80;2.70;;;;;;;14.66;76.77;98397.47;5050593;28;20284;-69
2022/08/13 05:24:32;;;;;;;6.13;2.22;;;;;;;15.82;71.73;98399.69;5050015;28;20036;-69
2022/08/13 05:26:58;;;;;;;3.38;2.40;;;;;;;16.72;68.72;98409.66;5050489;28;20025;-69
2022/08/13 05:29:24;;;;;;;7.13;2.20;;;;;;;17.50;65.36;98409.41;5047837;28;20071;-69
2022/08/13 05:31:51;;;;;;;2.58;2.08;;;;;;;18.08;63.10;98405.44;5050607;28;20025;-69
2022/08/13 05:34:16;;;;;;;4.28;2.10;;;;;;;18.25;61.03;98410.72;5049016;28;20025;-69
2022/08/13 05:36:43;;;;;;;2.67;1.95;;;;;;;18.87;59.33;98410.84;5052277;28;20029;-69
2022/08/13 05:39:09;;;;;;;4.43;2.05;;;;;;;18.58;58.22;98395.63;5052446;28;20032;-69
2022/08/13 05:41:34;;;;;;;2.33;1.60;;;;;;;18.90;58.88;98403.56;5055221;28;20028;-69
2022/08/13 05:44:00;;;;;;;6.05;1.80;;;;;;;19.66;56.98;98405.34;5050832;28;20032;-69
2022/08/13 05:46:25;;;;;;;3.00;1.70;;;;;;;19.74;54.94;98391.56;5061360;28;20032;-69
2022/08/13 05:48:56;;;;;;;2.67;1.83;;;;;;;20.48;54.28;98412.78;5062177;28;20021;-69
2022/08/13 05:51:28;;;;;;;2.30;1.75;;;;;;;20.88;53.22;98417.28;5052656;28;20058;-69
2022/08/13 05:53:55;;;;;;;2.50;1.73;;;;;;;21.41;53.98;98421.88;5051045;28;20241;-69
2022/08/13 05:56:24;;;;;;;5.43;1.67;;;;;;;22.27;51.37;98424.03;5063569;28;20096;-69
2022/08/13 05:58:51;;;;;;;5.18;1.48;;;;;;;22.48;50.98;98417.16;5049591;28;20337;-69
2022/08/13 06:04:22;;;;;;;2.28;1.58;;;;;;;22.64;50.68;98401.72;5052380;28;20028;-69
2022/08/13 06:06:48;;;;;;;2.00;1.50;;;;;;;22.94;50.63;98413.78;5059109;28;20037;-69
2022/08/13 06:09:13;;;;;;;3.13;2.00;;;;;;;23.21;49.73;98413.59;5047696;28;20060;-68
2022/08/13 06:11:43;;;;;;;8.77;2.05;;;;;;;23.87;48.32;98419.34;5057038;28;20084;-69
2022/08/13 06:14:08;;;;;;;8.00;2.05;;;;;;;24.28;47.21;98419.72;5047594;28;20064;-69
2022/08/13 06:16:37;;;;;;;5.18;1.80;;;;;;;23.77;48.73;98407.56;5061661;28;20171;-68
2022/08/13 06:19:03;;;;;;;7.35;1.83;;;;;;;24.42;47.18;98416.81;5062049;28;20071;-69
2022/08/13 06:21:28;;;;;;;6.65;1.73;;;;;;;24.83;47.16;98427.00;5056484;28;20027;-70
2022/08/13 06:23:54;;;;;;;5.82;1.92;;;;;;;25.42;46.15;98424.88;5055392;28;20092;-70
2022/08/13 06:26:22;;;;;;;6.25;1.80;;;;;;;26.07;45.53;98429.19;5058170;28;20100;-70
2022/08/13 06:28:50;;;;;;;2.80;1.75;;;;;;;26.31;44.70;98418.13;5058036;28;20051;-69
2022/08/13 06:31:16;;;;;;;4.00;1.90;;;;;;;27.25;42.65;98431.28;5055201;28;20224;-70
2022/08/13 06:33:46;;;;;;;7.72;2.50;;;;;;;26.59;43.39;98417.47;5053125;28;20044;-70
2022/08/13 06:36:14;;;;;;;6.80;2.38;;;;;;;26.80;44.43;98412.91;5056693;28;20024;-70
2022/08/13 06:38:50;;;;;;;7.88;2.45;;;;;;;27.32;43.68;98415.41;5056761;28;20021;-69
2022/08/13 06:41:18;;;;;;;11.05;2.30;;;;;;;27.68;43.90;98422.00;5052110;28;20079;-69
2022/08/13 06:43:49;;;;;;;9.60;2.20;;;;;;;28.19;42.29;98422.59;5047925;28;20037;-69
2022/08/13 06:46:17;;;;;;;6.05;2.10;;;;;;;29.04;40.46;98438.69;5056817;28;20092;-69
2022/08/13 06:48:43;;;;;;;4.55;2.08;;;;;;;29.37;40.06;98439.09;5057725;28;20029;-69
2022/08/13 06:51:11;;;;;;;6.53;2.40;;;;;;;29.38;38.62;98430.81;5056315;28;20025;-69
2022/08/13 06:53:39;;;;;;;5.70;2.15;;;;;;;29.41;37.14;98425.06;5058568;28;20022;-69
2022/08/13 06:56:07;;;;;;;7.35;1.83;;;;;;;30.41;37.04;98438.34;5052117;28;20029;-69
2022/08/13 06:58:36;;;;;;;4.55;2.00;;;;;;;29.99;35.25;98414.72;5056962;28;20029;-69
2022/08/13 07:01:02;;;;;;;6.75;2.25;;;;;;;29.47;36.37;98416.34;5057025;28;20316;-69
2022/08/13 07:03:29;;;;;;;7.93;2.10;;;;;;;30.34;36.05;98425.56;5053458;28;20032;-69
2022/08/13 07:05:58;;;;;;;4.72;2.30;;;;;;;30.18;35.03;98418.13;5054503;28;20021;-69
2022/08/13 07:08:27;;;;;;;4.13;1.90;;;;;;;31.05;36.10;98443.38;5054367;28;20056;-69
2022/08/13 07:13:40;;;;;;;6.68;2.08;;;;;;;30.27;34.76;98419.91;5055276;28;20264;-69
2022/08/13 07:16:09;;;;;;;5.03;2.10;;;;;;;31.68;34.10;98436.53;5055317;28;20066;-69
2022/08/13 07:18:35;;;;;;;5.05;2.13;;;;;;;32.01;32.70;98432.88;5056775;28;20021;-69
2022/08/13 07:21:04;;;;;;;7.18;2.33;;;;;;;32.01;32.38;98432.03;5053905;28;20071;-69
2022/08/13 07:23:29;;;;;;;3.55;2.28;;;;;;;31.14;33.86;98426.97;5054642;28;20331;-69
2022/08/13 07:25:57;;;;;;;4.57;1.80;;;;;;;31.80;33.76;98432.47;5056574;28;20046;-69
2022/08/13 07:28:24;;;;;;;4.60;2.35;;;;;;;32.17;32.07;98435.59;5054599;28;20037;-69
2022/08/13 07:30:51;;;;;;;5.22;2.05;;;;;;;31.32;33.15;98418.75;5056411;28;20022;-69
2022/08/13 07:33:17;;;;;;;10.32;2.70;;;;;;;31.32;33.36;98413.31;5055852;28;20024;-69
2022/08/13 07:35:42;;;;;;;3.47;2.33;;;;;;;31.85;33.04;98418.41;5053265;28;20033;-69
2022/08/13 07:38:07;;;;;;;5.15;2.17;;;;;;;32.00;33.19;98413.97;5062074;28;20021;-69
2022/08/13 07:40:34;;;;;;;3.60;2.25;;;;;;;32.49;32.02;98427.47;5051679;28;20195;-69
2022/08/13 07:43:04;;;;;;;6.20;2.08;;;;;;;32.34;31.97;98428.34;5055660;28;20013;-69
2022/08/13 07:45:29;;;;;;;2.85;2.10;;;;;;;32.50;31.33;98423.75;5056069;28;20359;-69
2022/08/13 07:47:57;;;;;;;5.03;2.20;;;;;;;32.13;32.30;98415.19;5060050;28;20025;-69
2022/08/13 07:50:23;;;;;;;3.03;2.05;;;;;;;32.36;31.59;98410.78;5059202;28;20087;-69
2022/08/13 07:52:58;;;;;;;5.78;2.53;;;;;;;33.16;30.92;98426.16;5056580;28;20036;-69
2022/08/13 07:55:25;;;;;;;2.25;2.05;;;;;;;32.43;32.10;98416.41;5058831;28;20036;-69
2022/08/13 07:57:51;;;;;;;5.50;1.90;;;;;;;32.33;31.56;98404.81;5047737;28;20059;-69
2022/08/13 08:00:26;;;;;;;4.07;2.05;;;;;;;31.97;32.20;98426.06;5057352;28;20092;-69
2022/08/13 08:02:57;;;;;;;6.72;2.22;;;;;;;31.94;32.33;98410.06;5045254;28;20395;-69
2022/08/13 08:05:24;;;;;;;3.67;2.22;;;;;;;32.08;31.83;98419.44;5045213;28;20047;-69
2022/08/13 08:07:51;;;;;;;2.85;1.83;;;;;;;33.14;30.29;98428.22;5044210;28;20028;-69
2022/08/13 08:10:18;;;;;;;7.18;2.08;;;;;;;32.34;31.19;98412.84;5084542;28;20040;-69
2022/08/13 08:12:44;;;;;;;2.42;1.80;;;;;;;31.83;31.74;98413.13;5067830;28;20396;-68
2022/08/13 08:15:10;;;;;;;5.03;2.20;;;;;;;31.99;32.21;98417.72;5045060;28;20032;-68
2022/08/13 08:17:36;;;;;;;2.88;2.10;;;;;;;32.43;31.26;98428.16;5044903;28;20048;-70
2022/08/13 08:20:04;;;;;;;5.90;2.58;;;;;;;32.07;31.78;98410.41;5053000;28;20309;-70
2022/08/13 08:22:30;;;;;;;10.13;2.33;;;;;;;32.05;31.33;98404.28;5055338;28;20190;-69
2022/08/13 08:24:57;;;;;;;6.65;2.17;;;;;;;32.23;31.02;98418.59;5044814;28;20048;-69
2022/08/13 08:27:25;;;;;;;3.35;1.95;;;;;;;31.84;31.70;98408.50;5044998;28;20062;-69
2022/08/13 08:29:52;;;;;;;6.03;2.15;;;;;;;32.42;31.17;98425.59;5044685;28;20091;-69
2022/08/13 08:32:19;;;;;;;9.00;2.05;;;;;;;32.18;30.92;98421.00;5044770;28;20348;-69
2022/08/13 08:34:47;;;;;;;5.45;2.00;;;;;;;32.14;31.16;98411.44;5047208;28;20029;-69
2022/08/13 08:42:56;;;;;;;5.10;2.45;;;;;;;32.16;30.50;98412.13;5063892;28;20055;-70
2022/08/13 08:45:24;;;;;;;8.65;1.98;;;;;;;31.95;30.44;98417.22;5063907;28;20025;-69
2022/08/13 08:47:52;;;;;;;10.52;2.17;;;;;;;32.03;30.54;98406.34;5064022;28;20025;-69
2022/08/13 08:50:22;;;;;;;5.70;2.30;;;;;;;32.36;30.13;98418.97;5062188;28;20028;-69
2022/08/13 08:55:37;;;;;;;3.03;1.90;;;;;;;32.56;29.17;98423.06;5044384;28;20101;-69
2022/08/13 08:58:04;;;;;;;2.65;1.83;;;;;;;32.26;28.92;98415.53;5044327;28;20132;-69
2022/08/13 09:00:33;;;;;;;9.18;2.92;;;;;;;31.96;29.87;98401.72;5056803;28;20104;-69
2022/08/13 09:02:59;;;;;;;3.80;1.88;;;;;;;32.30;30.26;98422.31;5063922;28;20028;-69
2022/08/13 09:05:25;;;;;;;10.60;2.08;;;;;;;31.41;30.64;98393.25;5063285;28;20044;-68
2022/08/13 09:07:52;;;;;;;5.03;2.30;;;;;;;31.40;30.77;98398.84;5052672;28;20021;-69
2022/08/13 09:10:20;;;;;;;4.65;2.17;;;;;;;30.99;30.85;98414.13;5059489;28;20017;-69
2022/08/13 09:12:48;;;;;;;3.92;2.15;;;;;;;30.95;31.56;98399.16;5055678;28;20321;-69
2022/08/13 09:15:21;;;;;;;7.63;1.90;;;;;;;31.62;31.29;98409.97;5060761;28;20021;-69
2022/08/13 09:17:47;;;;;;;11.38;2.35;;;;;;;32.67;30.58;98419.97;5063171;28;20202;-69
2022/08/13 09:20:16;;;;;;;5.22;2.30;;;;;;;32.74;29.66;98401.03;5055903;28;20128;-69
2022/08/13 09:22:44;;;;;;;3.28;2.25;;;;;;;32.98;29.85;98407.31;5044073;28;20025;-69
2022/08/13 09:25:13;;;;;;;5.18;1.90;;;;;;;32.98;30.07;98406.44;5044001;28;20075;-69
2022/08/13 09:27:43;;;;;;;2.78;1.88;;;;;;;32.86;29.40;98391.47;5044959;28;20017;-69
2022/08/13 09:30:10;;;;;;;3.80;2.10;;;;;;;31.88;30.30;98372.63;5045203;28;20270;-69
2022/08/13 09:32:36;;;;;;;4.13;1.80;;;;;;;32.40;29.75;98393.06;5063024;28;20020;-69
2022/08/13 09:35:04;;;;;;;8.02;1.83;;;;;;;32.01;30.00;98391.19;5063300;28;20032;-69
2022/08/13 09:37:31;;;;;;;4.20;1.90;;;;;;;32.29;28.76;98392.53;5061910;28;20202;-69
2022/08/13 09:40:08;;;;;;;9.25;2.00;;;;;;;31.67;29.73;98380.41;5063389;28;20063;-69
2022/08/13 09:42:38;;;;;;;7.47;2.35;;;;;;;32.44;29.59;98408.06;5063715;28;20269;-69
2022/08/13 09:45:05;;;;;;;7.03;2.75;;;;;;;31.35;29.62;98388.47;5063724;28;20089;-69
2022/08/13 09:47:31;;;;;;;2.42;2.05;;;;;;;31.71;28.86;98400.81;5063660;28;20020;-69
2022/08/13 09:49:56;;;;;;;3.92;2.20;;;;;;;31.52;29.34;98384.78;5060028;28;20051;-69
2022/08/13 09:52:22;;;;;;;7.18;1.95;;;;;;;31.82;28.89;98394.25;5062874;28;20017;-69
2022/08/13 09:54:48;;;;;;;5.50;2.30;;;;;;;31.85;28.76;98400.19;5063114;28;20329;-69
2022/08/13 09:57:13;;;;;;;4.43;2.00;;;;;;;32.05;29.09;98396.09;5062830;28;20033;-69
2022/08/13 09:59:39;;;;;;;4.07;2.40;;;;;;;31.56;29.80;98388.88;5056845;28;20035;-69
2022/08/13 10:02:09;;;;;;;4.32;2.30;;;;;;;31.41;29.49;98390.53;5043543;28;20030;-69
2022/08/13 10:04:39;;;;;;;10.63;2.60;;;;;;;31.80;30.03;98383.47;5055400;28;20031;-69
2022/08/13 10:07:07;;;;;;;2.92;2.08;;;;;;;31.73;29.50;98374.25;5062714;28;20037;-69
2022/08/13 10:09:34;;;;;;;7.72;2.00;;;;;;;31.75;29.48;98372.25;5057235;28;20025;-69
2022/08/13 10:12:00;;;;;;;3.55;2.15;;;;;;;32.93;28.12;98392.47;5068844;28;20208;-69
2022/08/13 10:14:26;;;;;;;5.03;2.10;;;;;;;32.88;27.97;98371.22;5059642;28;20030;-69
2022/08/13 10:16:53;;;;;;;4.03;1.77;;;;;;;33.42;27.93;98376.78;5057688;28;20089;-69
2022/08/13 10:19:18;;;;;;;6.65;2.58;;;;;;;33.47;27.69;98377.13;5052233;28;20028;-69
2022/08/13 10:21:44;;;;;;;7.13;2.67;;;;;;;32.80;28.26;98376.66;5043569;28;20018;-69
2022/08/13 10:24:10;;;;;;;5.97;2.05;;;;;;;32.16;27.59;98348.63;5042686;28;20052;-69
2022/08/13 10:26:40;;;;;;;2.13;1.83;;;;;;;31.85;27.93;98372.97;5052156;28;20025;-69
2022/08/13 10:29:09;;;;;;;6.07;2.38;;;;;;;31.94;28.12;98361.06;5055644;28;20037;-69
2022/08/13 10:31:35;;;;;;;6.13;2.50;;;;;;;32.40;27.73;98374.00;5054456;28;20036;-69
2022/08/13 10:34:03;;;;;;;8.65;2.20;;;;;;;32.39;28.38;98355.94;5046061;28;20021;-69
2022/08/13 10:36:30;;;;;;;4.15;2.00;;;;;;;32.64;27.66;98365.78;5046058;28;20079;-69
2022/08/13 10:38:56;;;;;;;4.07;2.08;;;;;;;32.46;28.30;98356.13;5050798;28;20017;-69
2022/08/13 10:41:22;;;;;;;5.82;2.45;;;;;;;32.26;27.80;98366.50;5054055;28;20219;-69
2022/08/13 10:43:48;;;;;;;9.02;2.47;;;;;;;32.07;28.63;98361.41;5045884;28;20392;-69
2022/08/13 10:46:16;;;;;;;6.10;1.90;;;;;;;32.27;28.22;98353.72;5045661;28;20309;-69
2022/08/13 10:48:45;;;;;;;8.40;2.30;;;;;;;32.24;27.63;98354.91;5045800;28;20052;-69
2022/08/13 10:51:11;;;;;;;3.65;1.90;;;;;;;31.67;27.76;98364.06;5045959;28;20024;-69
2022/08/13 10:53:55;;;;;;;8.20;2.28;;;;;;;31.70;27.42;98341.94;5046646;28;20022;-69
2022/08/13 10:56:22;;;;;;;6.57;2.17;;;;;;;31.51;27.20;98336.81;5045677;28;20260;-69
2022/08/13 10:58:48;;;;;;;4.63;2.17;;;;;;;31.94;27.66;98347.44;5045219;28;20029;-69
2022/08/13 11:01:13;;;;;;;4.25;2.00;;;;;;;31.97;28.54;98344.38;5058316;28;20017;-69
2022/08/13 11:03:40;;;;;;;3.72;1.80;;;;;;;31.59;28.29;98331.38;5056283;28;20348;-69
2022/08/13 11:06:07;;;;;;;5.13;2.00;;;;;;;31.66;28.45;98346.03;5065142;28;20043;-69
2022/08/13 11:08:36;;;;;;;6.40;2.10;;;;;;;31.71;28.43;98321.88;5065095;28;20021;-69
2022/08/13 11:11:02;;;;;;;2.60;1.80;;;;;;;31.95;27.61;98332.78;5064932;28;20029;-69
2022/08/13 11:13:28;;;;;;;5.30;2.10;;;;;;;31.91;26.49;98331.44;5065300;28;20031;-69
2022/08/13 11:15:53;;;;;;;4.32;1.90;;;;;;;31.32;27.16;98326.25;5065281;28;20269;-69
2022/08/13 11:18:19;;;;;;;4.88;1.60;;;;;;;31.37;27.63;98353.78;5065259;28;20044;-69
2022/08/13 11:21:02;;;;;;;3.17;1.85;;;;;;;31.23;28.05;98327.22;5049307;28;20202;-69
2022/08/13 11:23:30;;;;;;;4.03;2.10;;;;;;;31.22;28.48;98321.94;5044745;28;20089;-69
2022/08/13 11:25:56;;;;;;;3.95;2.25;;;;;;;31.44;27.75;98330.34;5045163;28;20080;-69
2022/08/13 11:28:22;;;;;;;3.63;2.20;;;;;;;30.84;28.35;98309.72;5044767;28;20049;-69
2022/08/13 11:30:49;;;;;;;4.32;2.33;;;;;;;30.67;28.35;98308.78;5045021;28;20044;-69
2022/08/13 11:33:14;;;;;;;2.50;1.70;;;;;;;30.86;28.27;98314.00;5044970;28;20049;-69
2022/08/13 11:35:43;;;;;;;4.00;1.92;;;;;;;30.61;28.27;98306.72;5044886;28;20032;-69
2022/08/13 11:38:12;;;;;;;3.90;2.13;;;;;;;30.20;28.37;98298.50;5044460;28;20030;-69
2022/08/13 11:40:38;;;;;;;5.13;2.13;;;;;;;30.22;28.88;98307.34;5046122;28;20087;-69
2022/08/13 11:43:04;;;;;;;6.25;2.13;;;;;;;30.11;28.92;98293.97;5044843;28;20259;-69
2022/08/13 11:45:30;;;;;;;6.13;1.95;;;;;;;29.87;29.31;98291.97;5044984;28;20209;-69
2022/08/13 11:47:55;;;;;;;4.15;2.00;;;;;;;29.84;28.92;98286.00;5044706;28;20025;-69
2022/08/13 11:50:20;;;;;;;6.20;2.10;;;;;;;29.66;29.92;98288.72;5045616;28;20115;-69
2022/08/13 11:52:46;;;;;;;4.72;2.22;;;;;;;29.74;30.18;98280.66;5044610;28;20032;-69
2022/08/13 11:55:11;;;;;;;4.72;2.10;;;;;;;29.85;29.80;98276.84;5044581;28;20071;-69